Impacts TAF Board
For situational awareness. Not to be used for flight planning purposes.
IDs:

KCLE - Cleveland/Hopkins In, OH, US

Issued at 0854 UTC 25 May 2020
Updated at 0910 UTC 25 May 2020
Potential Impact None Slight Moderate High
Time0851Z 25/10Z 25/11Z 25/12Z 25/13Z 25/14Z 25/15Z 25/16Z 25/17Z 25/18Z 25/19Z 25/20Z 25/21Z 25/22Z>>
Type OBS PRVL PRVL PRVL PRVL PRVL PRVL PRVL PRVL PRVL PRVL PRVL PRVL PRVL
VIS 10 >6 >6 >6 >6 >6 >6 >6 >6 >6 >6 >6 >6 >6
CIG -- 250 250 250 250 250 250 250 250 250 250 100 100 100
Cover SCT BKN BKN BKN BKN BKN BKN BKN BKN BKN BKN BKN BKN BKN
FltCat VFR VFR VFR VFR VFR VFR VFR VFR VFR VFR VFR VFR VFR VFR
WX -- -- -- -- -- -- -- -- -- -- -- VCTS VCTS VCTS
WDir 180 190 190 190 190 190 VRB VRB VRB VRB VRB 140 140 140
WSpd 6 5 5 5 5 5 3 3 3 3 3 5 5 5
WGst -- -- -- -- -- -- -- -- -- -- -- -- -- --
Raw TAF
KCLE 250854Z 2509/2612 19005KT P6SM BKN250
  FM251500 VRB03KT P6SM FEW040 BKN250
  FM252000 14005KT P6SM VCTS SCT045CB BKN100
  FM260000 17004KT P6SM FEW045 BKN200


Raw METAR
KCLE 250851Z 18006KT 10SM SCT250 21/17 A3004 RMK AO2 SLP167 T02060172 53009
KCLE 250751Z 21005KT 10SM SCT250 19/17 A3003 RMK AO2 SLP163 T01890167
KCLE 250651Z 18006KT 10SM FEW250 21/17 A3002 RMK AO2 SLP160 T02110172

METAR Board
Radar Display
Forecast Discussion
For situational awareness. Not to be used for flight planning purposes.